sensor_id;sensor_type;location;lat;lon;timestamp;pressure;altitude;pressure_sealevel;temperature;humidity
10510;BME280;5303;53.266;10.410;2022-09-16T00:01:11;100268.88;;;15.51;100.00
10510;BME280;5303;53.266;10.410;2022-09-16T00:03:37;100266.97;;;15.52;100.00
10510;BME280;5303;53.266;10.410;2022-09-16T00:06:02;100277.31;;;15.50;100.00
10510;BME280;5303;53.266;10.410;2022-09-16T00:08:28;100270.75;;;15.57;100.00
10510;BME280;5303;53.266;10.410;2022-09-16T00:10:58;100266.84;;;15.33;100.00
10510;BME280;5303;53.266;10.410;2022-09-16T00:13:24;100272.75;;;15.37;100.00
10510;BME280;5303;53.266;10.410;2022-09-16T00:15:49;100261.06;;;15.55;100.00
10510;BME280;5303;53.266;10.410;2022-09-16T00:18:15;100260.91;;;15.43;100.00
10510;BME280;5303;53.266;10.410;2022-09-16T00:20:45;100263.44;;;15.45;100.00
10510;BME280;5303;53.266;10.410;2022-09-16T00:23:10;100266.56;;;15.48;100.00
10510;BME280;5303;53.266;10.410;2022-09-16T00:25:36;100276.16;;;15.32;100.00
10510;BME280;5303;53.266;10.410;2022-09-16T00:28:01;100279.50;;;15.41;100.00
10510;BME280;5303;53.266;10.410;2022-09-16T00:30:26;100286.31;;;15.25;100.00
10510;BME280;5303;53.266;10.410;2022-09-16T00:32:52;100281.09;;;15.55;100.00
10510;BME280;5303;53.266;10.410;2022-09-16T00:35:17;100276.63;;;15.68;100.00
10510;BME280;5303;53.266;10.410;2022-09-16T00:37:43;100280.22;;;15.68;100.00
10510;BME280;5303;53.266;10.410;2022-09-16T00:40:08;100279.47;;;15.48;100.00
10510;BME280;5303;53.266;10.410;2022-09-16T00:42:40;100277.78;;;15.40;100.00
10510;BME280;5303;53.266;10.410;2022-09-16T00:45:13;100276.25;;;15.57;100.00
10510;BME280;5303;53.266;10.410;2022-09-16T00:47:46;100280.03;;;15.56;100.00
10510;BME280;5303;53.266;10.410;2022-09-16T00:50:20;100278.78;;;15.52;100.00
10510;BME280;5303;53.266;10.410;2022-09-16T00:52:46;100274.41;;;15.45;100.00
10510;BME280;5303;53.266;10.410;2022-09-16T00:55:17;100276.88;;;15.53;100.00
10510;BME280;5303;53.266;10.410;2022-09-16T00:57:43;100268.22;;;15.56;100.00
10510;BME280;5303;53.266;10.410;2022-09-16T01:00:10;100270.22;;;15.35;100.00
10510;BME280;5303;53.266;10.410;2022-09-16T01:02:38;100264.94;;;15.34;100.00
10510;BME280;5303;53.266;10.410;2022-09-16T01:05:11;100269.59;;;15.33;100.00
10510;BME280;5303;53.266;10.410;2022-09-16T01:07:46;100261.59;;;15.32;100.00
10510;BME280;5303;53.266;10.410;2022-09-16T01:10:14;100253.41;;;15.25;100.00
10510;BME280;5303;53.266;10.410;2022-09-16T01:12:42;100259.25;;;15.35;100.00
10510;BME280;5303;53.266;10.410;2022-09-16T01:15:09;100257.97;;;15.38;100.00
10510;BME280;5303;53.266;10.410;2022-09-16T01:23:13;100261.19;;;15.28;100.00
10510;BME280;5303;53.266;10.410;2022-09-16T01:42:41;100264.81;;;15.22;100.00
10510;BME280;5303;53.266;10.410;2022-09-16T01:48:18;100258.47;;;15.15;100.00
10510;BME280;5303;53.266;10.410;2022-09-16T01:50:54;100266.50;;;15.17;100.00
10510;BME280;5303;53.266;10.410;2022-09-16T01:53:32;100266.72;;;15.15;100.00
10510;BME280;5303;53.266;10.410;2022-09-16T01:59:11;100262.47;;;15.26;100.00
10510;BME280;5303;53.266;10.410;2022-09-16T02:03:59;100265.38;;;15.31;100.00
10510;BME280;5303;53.266;10.410;2022-09-16T02:06:27;100261.00;;;15.23;100.00
10510;BME280;5303;53.266;10.410;2022-09-16T02:08:58;100269.88;;;15.19;100.00
10510;BME280;5303;53.266;10.410;2022-09-16T02:11:25;100273.16;;;15.34;100.00
10510;BME280;5303;53.266;10.410;2022-09-16T02:13:56;100273.53;;;15.06;100.00
10510;BME280;5303;53.266;10.410;2022-09-16T02:16:59;100266.06;;;15.20;100.00
10510;BME280;5303;53.266;10.410;2022-09-16T02:19:29;100259.34;;;15.16;100.00
10510;BME280;5303;53.266;10.410;2022-09-16T02:21:57;100262.56;;;14.93;100.00
10510;BME280;5303;53.266;10.410;2022-09-16T02:24:27;100260.00;;;15.04;100.00
10510;BME280;5303;53.266;10.410;2022-09-16T02:26:56;100257.91;;;15.00;100.00
10510;BME280;5303;53.266;10.410;2022-09-16T02:29:29;100252.84;;;15.03;100.00
10510;BME280;5303;53.266;10.410;2022-09-16T02:31:59;100250.97;;;14.97;100.00
10510;BME280;5303;53.266;10.410;2022-09-16T02:34:29;100248.84;;;15.06;100.00
10510;BME280;5303;53.266;10.410;2022-09-16T02:37:02;100246.91;;;15.13;100.00
10510;BME280;5303;53.266;10.410;2022-09-16T02:39:31;100237.25;;;14.97;100.00
10510;BME280;5303;53.266;10.410;2022-09-16T02:42:00;100247.59;;;14.95;100.00
10510;BME280;5303;53.266;10.410;2022-09-16T02:44:26;100238.75;;;14.93;100.00
10510;BME280;5303;53.266;10.410;2022-09-16T02:47:25;100248.88;;;14.86;100.00
10510;BME280;5303;53.266;10.410;2022-09-16T02:50:14;100244.06;;;14.81;100.00
10510;BME280;5303;53.266;10.410;2022-09-16T02:53:30;100250.56;;;14.87;100.00
10510;BME280;5303;53.266;10.410;2022-09-16T02:55:46;100247.78;;;15.00;100.00
10510;BME280;5303;53.266;10.410;2022-09-16T02:58:14;100251.78;;;15.04;100.00
10510;BME280;5303;53.266;10.410;2022-09-16T03:00:44;100243.81;;;14.83;100.00
10510;BME280;5303;53.266;10.410;2022-09-16T03:03:11;100237.44;;;15.02;100.00
10510;BME280;5303;53.266;10.410;2022-09-16T03:06:35;100243.16;;;14.94;100.00
10510;BME280;5303;53.266;10.410;2022-09-16T03:08:36;100241.69;;;14.91;100.00
10510;BME280;5303;53.266;10.410;2022-09-16T03:11:27;100257.28;;;14.98;100.00
10510;BME280;5303;53.266;10.410;2022-09-16T03:17:28;100258.53;;;15.02;100.00
10510;BME280;5303;53.266;10.410;2022-09-16T03:23:29;100249.31;;;14.89;100.00
10510;BME280;5303;53.266;10.410;2022-09-16T03:26:19;100252.59;;;15.11;100.00
10510;BME280;5303;53.266;10.410;2022-09-16T03:31:57;100250.03;;;15.17;100.00
10510;BME280;5303;53.266;10.410;2022-09-16T03:35:06;100249.03;;;15.04;100.00
10510;BME280;5303;53.266;10.410;2022-09-16T03:37:31;100253.25;;;15.07;100.00
10510;BME280;5303;53.266;10.410;2022-09-16T03:40:03;100246.34;;;14.91;100.00
10510;BME280;5303;53.266;10.410;2022-09-16T03:42:30;100247.38;;;14.97;100.00
10510;BME280;5303;53.266;10.410;2022-09-16T03:44:55;100244.00;;;14.95;100.00
10510;BME280;5303;53.266;10.410;2022-09-16T03:47:21;100237.66;;;15.01;100.00
10510;BME280;5303;53.266;10.410;2022-09-16T03:49:46;100242.56;;;14.85;100.00
10510;BME280;5303;53.266;10.410;2022-09-16T03:52:12;100235.41;;;14.78;100.00
10510;BME280;5303;53.266;10.410;2022-09-16T03:54:37;100236.44;;;14.90;100.00
10510;BME280;5303;53.266;10.410;2022-09-16T03:57:03;100236.66;;;14.82;100.00
10510;BME280;5303;53.266;10.410;2022-09-16T03:59:29;100244.91;;;14.75;100.00
10510;BME280;5303;53.266;10.410;2022-09-16T04:01:55;100231.38;;;14.87;100.00
10510;BME280;5303;53.266;10.410;2022-09-16T04:04:20;100238.09;;;14.91;100.00
10510;BME280;5303;53.266;10.410;2022-09-16T04:06:46;100231.81;;;14.84;100.00
10510;BME280;5303;53.266;10.410;2022-09-16T04:09:12;100234.41;;;14.59;100.00
10510;BME280;5303;53.266;10.410;2022-09-16T04:11:38;100230.00;;;14.58;100.00
10510;BME280;5303;53.266;10.410;2022-09-16T04:14:04;100227.00;;;14.59;100.00
10510;BME280;5303;53.266;10.410;2022-09-16T04:16:30;100225.31;;;14.72;100.00
10510;BME280;5303;53.266;10.410;2022-09-16T04:18:56;100217.13;;;14.45;100.00
10510;BME280;5303;53.266;10.410;2022-09-16T04:21:21;100220.91;;;14.64;100.00
10510;BME280;5303;53.266;10.410;2022-09-16T04:23:47;100215.81;;;14.74;100.00
10510;BME280;5303;53.266;10.410;2022-09-16T04:26:12;100215.78;;;14.87;100.00
10510;BME280;5303;53.266;10.410;2022-09-16T04:28:37;100219.13;;;14.83;100.00
10510;BME280;5303;53.266;10.410;2022-09-16T04:31:06;100213.28;;;14.66;100.00
10510;BME280;5303;53.266;10.410;2022-09-16T04:33:33;100223.84;;;14.69;100.00
10510;BME280;5303;53.266;10.410;2022-09-16T04:36:10;100217.97;;;14.59;100.00
10510;BME280;5303;53.266;10.410;2022-09-16T04:38:39;100210.16;;;14.62;100.00
10510;BME280;5303;53.266;10.410;2022-09-16T04:41:19;100220.66;;;14.72;100.00
10510;BME280;5303;53.266;10.410;2022-09-16T04:43:45;100236.28;;;14.65;100.00
10510;BME280;5303;53.266;10.410;2022-09-16T04:46:11;100239.88;;;14.65;100.00
10510;BME280;5303;53.266;10.410;2022-09-16T04:48:37;100219.19;;;14.50;100.00
10510;BME280;5303;53.266;10.410;2022-09-16T04:51:08;100198.97;;;14.57;100.00
10510;BME280;5303;53.266;10.410;2022-09-16T04:53:34;100200.84;;;14.63;100.00
10510;BME280;5303;53.266;10.410;2022-09-16T04:56:09;100211.66;;;14.52;100.00
10510;BME280;5303;53.266;10.410;2022-09-16T04:58:37;100206.13;;;14.65;100.00
10510;BME280;5303;53.266;10.410;2022-09-16T05:01:04;100206.56;;;14.62;100.00
10510;BME280;5303;53.266;10.410;2022-09-16T05:03:29;100203.75;;;14.82;100.00
10510;BME280;5303;53.266;10.410;2022-09-16T05:06:03;100208.88;;;14.65;100.00
10510;BME280;5303;53.266;10.410;2022-09-16T05:08:29;100213.72;;;14.63;100.00
10510;BME280;5303;53.266;10.410;2022-09-16T05:10:54;100200.19;;;14.75;100.00
10510;BME280;5303;53.266;10.410;2022-09-16T05:13:22;100199.94;;;14.83;100.00
10510;BME280;5303;53.266;10.410;2022-09-16T05:15:47;100192.53;;;14.97;100.00
10510;BME280;5303;53.266;10.410;2022-09-16T05:18:12;100190.63;;;14.97;100.00
10510;BME280;5303;53.266;10.410;2022-09-16T05:20:37;100194.44;;;14.96;100.00
10510;BME280;5303;53.266;10.410;2022-09-16T05:23:03;100202.47;;;14.91;100.00
10510;BME280;5303;53.266;10.410;2022-09-16T05:25:28;100200.41;;;14.73;100.00
10510;BME280;5303;53.266;10.410;2022-09-16T05:27:53;100190.97;;;14.62;100.00
10510;BME280;5303;53.266;10.410;2022-09-16T05:30:19;100191.09;;;14.87;100.00
10510;BME280;5303;53.266;10.410;2022-09-16T05:32:44;100201.78;;;14.96;100.00
10510;BME280;5303;53.266;10.410;2022-09-16T05:35:10;100200.19;;;14.81;100.00
10510;BME280;5303;53.266;10.410;2022-09-16T05:37:35;100194.53;;;14.63;100.00
10510;BME280;5303;53.266;10.410;2022-09-16T05:40:00;100193.69;;;14.62;100.00
10510;BME280;5303;53.266;10.410;2022-09-16T05:42:26;100201.88;;;14.76;100.00
10510;BME280;5303;53.266;10.410;2022-09-16T05:44:51;100202.31;;;14.66;100.00
10510;BME280;5303;53.266;10.410;2022-09-16T05:47:16;100201.47;;;14.72;100.00
10510;BME280;5303;53.266;10.410;2022-09-16T05:49:42;100202.56;;;14.64;100.00
10510;BME280;5303;53.266;10.410;2022-09-16T05:52:07;100218.78;;;14.66;100.00
10510;BME280;5303;53.266;10.410;2022-09-16T05:54:32;100221.94;;;14.70;100.00
10510;BME280;5303;53.266;10.410;2022-09-16T05:56:58;100220.63;;;14.85;100.00
10510;BME280;5303;53.266;10.410;2022-09-16T05:59:23;100216.81;;;14.93;100.00
10510;BME280;5303;53.266;10.410;2022-09-16T06:01:48;100226.50;;;14.89;100.00
10510;BME280;5303;53.266;10.410;2022-09-16T06:04:14;100232.59;;;14.98;100.00
10510;BME280;5303;53.266;10.410;2022-09-16T06:06:41;100224.97;;;15.06;100.00
10510;BME280;5303;53.266;10.410;2022-09-16T06:09:11;100213.69;;;15.28;100.00
10510;BME280;5303;53.266;10.410;2022-09-16T06:11:40;100213.72;;;15.21;100.00
10510;BME280;5303;53.266;10.410;2022-09-16T06:14:06;100215.31;;;15.42;100.00
10510;BME280;5303;53.266;10.410;2022-09-16T06:16:32;100209.06;;;15.28;100.00
10510;BME280;5303;53.266;10.410;2022-09-16T06:19:00;100201.88;;;15.27;100.00
10510;BME280;5303;53.266;10.410;2022-09-16T06:21:26;100202.50;;;15.29;100.00
10510;BME280;5303;53.266;10.410;2022-09-16T06:23:52;100205.44;;;15.28;100.00
10510;BME280;5303;53.266;10.410;2022-09-16T06:26:19;100199.06;;;14.96;100.00
10510;BME280;5303;53.266;10.410;2022-09-16T06:28:45;100198.19;;;15.02;100.00
10510;BME280;5303;53.266;10.410;2022-09-16T06:33:45;100202.59;;;15.09;100.00
10510;BME280;5303;53.266;10.410;2022-09-16T06:36:15;100210.81;;;15.16;100.00
10510;BME280;5303;53.266;10.410;2022-09-16T06:38:42;100202.22;;;15.37;100.00
10510;BME280;5303;53.266;10.410;2022-09-16T06:41:09;100197.66;;;15.31;100.00
10510;BME280;5303;53.266;10.410;2022-09-16T06:43:35;100201.91;;;15.21;100.00
10510;BME280;5303;53.266;10.410;2022-09-16T06:46:03;100200.81;;;15.28;100.00
10510;BME280;5303;53.266;10.410;2022-09-16T06:48:31;100196.09;;;15.42;100.00
10510;BME280;5303;53.266;10.410;2022-09-16T06:50:59;100192.94;;;15.38;100.00
10510;BME280;5303;53.266;10.410;2022-09-16T06:53:25;100189.31;;;15.45;100.00
10510;BME280;5303;53.266;10.410;2022-09-16T06:55:51;100187.41;;;15.45;100.00
10510;BME280;5303;53.266;10.410;2022-09-16T06:58:16;100184.53;;;15.65;100.00
10510;BME280;5303;53.266;10.410;2022-09-16T07:00:41;100184.72;;;15.38;100.00
10510;BME280;5303;53.266;10.410;2022-09-16T07:03:07;100193.53;;;15.79;100.00
10510;BME280;5303;53.266;10.410;2022-09-16T07:05:32;100181.72;;;15.78;100.00
10510;BME280;5303;53.266;10.410;2022-09-16T07:07:58;100185.31;;;15.79;100.00
10510;BME280;5303;53.266;10.410;2022-09-16T07:10:24;100182.75;;;15.84;100.00
10510;BME280;5303;53.266;10.410;2022-09-16T07:12:49;100179.09;;;15.58;100.00
10510;BME280;5303;53.266;10.410;2022-09-16T07:15:14;100183.28;;;15.68;100.00
10510;BME280;5303;53.266;10.410;2022-09-16T07:17:40;100184.97;;;15.69;100.00
10510;BME280;5303;53.266;10.410;2022-09-16T07:20:05;100186.81;;;15.75;100.00
10510;BME280;5303;53.266;10.410;2022-09-16T07:22:31;100179.47;;;15.69;100.00
10510;BME280;5303;53.266;10.410;2022-09-16T07:24:56;100180.25;;;16.01;100.00
10510;BME280;5303;53.266;10.410;2022-09-16T07:27:22;100185.25;;;15.86;100.00
10510;BME280;5303;53.266;10.410;2022-09-16T07:29:47;100179.25;;;16.20;100.00
10510;BME280;5303;53.266;10.410;2022-09-16T07:32:12;100173.94;;;16.25;100.00
10510;BME280;5303;53.266;10.410;2022-09-16T07:34:37;100171.41;;;16.42;100.00
10510;BME280;5303;53.266;10.410;2022-09-16T07:37:03;100177.63;;;16.38;100.00
10510;BME280;5303;53.266;10.410;2022-09-16T07:39:28;100176.34;;;16.15;100.00
10510;BME280;5303;53.266;10.410;2022-09-16T07:41:53;100171.63;;;16.22;100.00
10510;BME280;5303;53.266;10.410;2022-09-16T07:44:19;100173.88;;;16.07;100.00
10510;BME280;5303;53.266;10.410;2022-09-16T07:46:44;100184.16;;;16.18;100.00
10510;BME280;5303;53.266;10.410;2022-09-16T07:49:12;100179.81;;;16.29;100.00
10510;BME280;5303;53.266;10.410;2022-09-16T07:51:37;100172.41;;;16.29;100.00
10510;BME280;5303;53.266;10.410;2022-09-16T07:54:06;100170.97;;;16.45;100.00
10510;BME280;5303;53.266;10.410;2022-09-16T07:56:34;100178.84;;;16.60;100.00
10510;BME280;5303;53.266;10.410;2022-09-16T07:59:01;100184.34;;;16.60;100.00
10510;BME280;5303;53.266;10.410;2022-09-16T08:01:27;100173.78;;;16.39;100.00
10510;BME280;5303;53.266;10.410;2022-09-16T08:03:54;100169.22;;;16.69;100.00
10510;BME280;5303;53.266;10.410;2022-09-16T08:06:23;100168.47;;;16.81;100.00
10510;BME280;5303;53.266;10.410;2022-09-16T08:08:50;100170.06;;;16.70;100.00
10510;BME280;5303;53.266;10.410;2022-09-16T08:11:17;100171.75;;;16.71;100.00
10510;BME280;5303;53.266;10.410;2022-09-16T08:13:42;100169.84;;;16.90;100.00
10510;BME280;5303;53.266;10.410;2022-09-16T08:16:14;100171.91;;;16.94;100.00
10510;BME280;5303;53.266;10.410;2022-09-16T08:18:40;100169.03;;;16.89;100.00
10510;BME280;5303;53.266;10.410;2022-09-16T08:21:06;100167.53;;;16.68;100.00
10510;BME280;5303;53.266;10.410;2022-09-16T08:23:33;100172.44;;;16.66;100.00
10510;BME280;5303;53.266;10.410;2022-09-16T08:25:59;100172.16;;;16.93;100.00
10510;BME280;5303;53.266;10.410;2022-09-16T08:28:25;100175.34;;;17.08;100.00
10510;BME280;5303;53.266;10.410;2022-09-16T08:30:51;100163.00;;;17.11;100.00
10510;BME280;5303;53.266;10.410;2022-09-16T08:33:16;100172.72;;;17.13;100.00
10510;BME280;5303;53.266;10.410;2022-09-16T08:36:08;100161.25;;;16.98;100.00
10510;BME280;5303;53.266;10.410;2022-09-16T08:38:32;100172.81;;;17.07;100.00
10510;BME280;5303;53.266;10.410;2022-09-16T08:44:19;100165.53;;;17.42;100.00
10510;BME280;5303;53.266;10.410;2022-09-16T08:46:52;100174.94;;;17.65;100.00
10510;BME280;5303;53.266;10.410;2022-09-16T08:52:11;100180.53;;;18.00;100.00
10510;BME280;5303;53.266;10.410;2022-09-16T08:54:55;100187.91;;;17.76;100.00
10510;BME280;5303;53.266;10.410;2022-09-16T08:57:25;100168.00;;;17.74;100.00
10510;BME280;5303;53.266;10.410;2022-09-16T08:59:56;100179.94;;;17.86;100.00
10510;BME280;5303;53.266;10.410;2022-09-16T09:02:51;100175.97;;;17.82;100.00
10510;BME280;5303;53.266;10.410;2022-09-16T09:08:04;100168.56;;;17.95;100.00
10510;BME280;5303;53.266;10.410;2022-09-16T09:13:27;100176.69;;;17.89;100.00
10510;BME280;5303;53.266;10.410;2022-09-16T09:18:50;100171.34;;;17.95;100.00
10510;BME280;5303;53.266;10.410;2022-09-16T09:21:33;100171.78;;;17.80;100.00
10510;BME280;5303;53.266;10.410;2022-09-16T09:24:30;100172.38;;;17.82;100.00
10510;BME280;5303;53.266;10.410;2022-09-16T09:29:43;100176.00;;;18.06;100.00
10510;BME280;5303;53.266;10.410;2022-09-16T09:42:23;100174.19;;;18.00;98.29
10510;BME280;5303;53.266;10.410;2022-09-16T09:45:04;100155.47;;;17.78;99.72
10510;BME280;5303;53.266;10.410;2022-09-16T09:47:41;100153.97;;;18.18;100.00
10510;BME280;5303;53.266;10.410;2022-09-16T09:53:01;100142.44;;;18.32;98.44
10510;BME280;5303;53.266;10.410;2022-09-16T09:55:32;100149.03;;;18.43;95.27
10510;BME280;5303;53.266;10.410;2022-09-16T10:00:27;100146.16;;;18.50;92.88
10510;BME280;5303;53.266;10.410;2022-09-16T10:03:01;100138.50;;;18.28;91.36
10510;BME280;5303;53.266;10.410;2022-09-16T10:05:29;100133.81;;;18.41;89.19
10510;BME280;5303;53.266;10.410;2022-09-16T10:07:57;100136.03;;;18.55;89.94
10510;BME280;5303;53.266;10.410;2022-09-16T10:10:25;100128.91;;;18.43;87.38
10510;BME280;5303;53.266;10.410;2022-09-16T10:12:51;100136.03;;;18.67;82.65
10510;BME280;5303;53.266;10.410;2022-09-16T10:15:20;100136.88;;;18.79;84.63
10510;BME280;5303;53.266;10.410;2022-09-16T10:17:48;100137.84;;;18.73;87.54
10510;BME280;5303;53.266;10.410;2022-09-16T10:20:36;100133.41;;;18.60;92.59
10510;BME280;5303;53.266;10.410;2022-09-16T10:23:05;100136.44;;;18.35;95.44
10510;BME280;5303;53.266;10.410;2022-09-16T10:25:32;100141.25;;;18.28;99.57
10510;BME280;5303;53.266;10.410;2022-09-16T10:27:59;100135.00;;;17.98;100.00
10510;BME280;5303;53.266;10.410;2022-09-16T10:30:27;100135.50;;;18.18;100.00
10510;BME280;5303;53.266;10.410;2022-09-16T10:33:03;100124.81;;;18.10;100.00
10510;BME280;5303;53.266;10.410;2022-09-16T10:35:34;100116.81;;;17.97;100.00
10510;BME280;5303;53.266;10.410;2022-09-16T10:40:35;100124.72;;;17.93;97.65
10510;BME280;5303;53.266;10.410;2022-09-16T10:43:04;100153.25;;;17.68;100.00
10510;BME280;5303;53.266;10.410;2022-09-16T10:45:35;100151.25;;;17.04;100.00
10510;BME280;5303;53.266;10.410;2022-09-16T10:48:10;100146.84;;;16.84;100.00
10510;BME280;5303;53.266;10.410;2022-09-16T10:50:36;100143.88;;;16.86;100.00
10510;BME280;5303;53.266;10.410;2022-09-16T10:53:02;100123.44;;;17.12;100.00
10510;BME280;5303;53.266;10.410;2022-09-16T10:55:31;100134.22;;;16.95;100.00
10510;BME280;5303;53.266;10.410;2022-09-16T10:58:14;100121.34;;;17.07;100.00
10510;BME280;5303;53.266;10.410;2022-09-16T11:00:55;100108.63;;;17.25;100.00
10510;BME280;5303;53.266;10.410;2022-09-16T11:11:38;100133.50;;;17.60;100.00
10510;BME280;5303;53.266;10.410;2022-09-16T11:19:14;100169.53;;;16.61;100.00
10510;BME280;5303;53.266;10.410;2022-09-16T11:25:14;100140.66;;;16.52;100.00
10510;BME280;5303;53.266;10.410;2022-09-16T11:27:57;100136.91;;;16.65;100.00
10510;BME280;5303;53.266;10.410;2022-09-16T11:30:29;100133.28;;;16.27;100.00
10510;BME280;5303;53.266;10.410;2022-09-16T11:41:53;100145.22;;;16.58;100.00
10510;BME280;5303;53.266;10.410;2022-09-16T11:44:25;100146.78;;;16.54;100.00
10510;BME280;5303;53.266;10.410;2022-09-16T11:58:40;100105.63;;;17.26;100.00
10510;BME280;5303;53.266;10.410;2022-09-16T12:01:47;100098.09;;;17.33;100.00
10510;BME280;5303;53.266;10.410;2022-09-16T12:04:34;100098.09;;;17.21;100.00
10510;BME280;5303;53.266;10.410;2022-09-16T12:07:20;100095.75;;;17.37;100.00
10510;BME280;5303;53.266;10.410;2022-09-16T12:09:54;100084.75;;;17.49;100.00
10510;BME280;5303;53.266;10.410;2022-09-16T12:12:25;100090.22;;;17.79;100.00
10510;BME280;5303;53.266;10.410;2022-09-16T12:15:01;100069.56;;;17.69;100.00
10510;BME280;5303;53.266;10.410;2022-09-16T12:17:31;100056.97;;;17.62;100.00
10510;BME280;5303;53.266;10.410;2022-09-16T12:22:40;100074.72;;;18.25;100.00
10510;BME280;5303;53.266;10.410;2022-09-16T12:25:20;100077.78;;;18.52;100.00
10510;BME280;5303;53.266;10.410;2022-09-16T12:27:50;100061.34;;;18.57;100.00
10510;BME280;5303;53.266;10.410;2022-09-16T12:30:21;100068.03;;;18.61;96.02
10510;BME280;5303;53.266;10.410;2022-09-16T12:38:14;100086.72;;;18.30;100.00
10510;BME280;5303;53.266;10.410;2022-09-16T12:43:41;100160.94;;;19.65;100.00
10510;BME280;5303;53.266;10.410;2022-09-16T13:00:15;100068.88;;;18.09;100.00
10510;BME280;5303;53.266;10.410;2022-09-16T13:02:46;100067.50;;;18.47;100.00
10510;BME280;5303;53.266;10.410;2022-09-16T13:05:20;100065.78;;;18.58;100.00
10510;BME280;5303;53.266;10.410;2022-09-16T13:07:50;100063.00;;;18.70;100.00
10510;BME280;5303;53.266;10.410;2022-09-16T13:10:21;100057.97;;;19.24;100.00
10510;BME280;5303;53.266;10.410;2022-09-16T13:12:55;100038.69;;;18.95;100.00
10510;BME280;5303;53.266;10.410;2022-09-16T13:15:25;100037.88;;;19.12;100.00
10510;BME280;5303;53.266;10.410;2022-09-16T13:17:51;100025.22;;;18.99;100.00
10510;BME280;5303;53.266;10.410;2022-09-16T13:20:22;100025.22;;;19.16;100.00
10510;BME280;5303;53.266;10.410;2022-09-16T13:23:03;100015.63;;;19.35;100.00
10510;BME280;5303;53.266;10.410;2022-09-16T13:25:56;100017.53;;;19.51;100.00
10510;BME280;5303;53.266;10.410;2022-09-16T13:31:17;99999.88;;;19.36;100.00
10510;BME280;5303;53.266;10.410;2022-09-16T13:33:48;99997.13;;;19.52;100.00
10510;BME280;5303;53.266;10.410;2022-09-16T13:38:59;99998.28;;;19.73;99.46
10510;BME280;5303;53.266;10.410;2022-09-16T13:44:25;99991.28;;;19.66;92.27
10510;BME280;5303;53.266;10.410;2022-09-16T13:46:51;99991.28;;;19.66;87.14
10510;BME280;5303;53.266;10.410;2022-09-16T13:49:22;100012.78;;;19.30;88.47
10510;BME280;5303;53.266;10.410;2022-09-16T13:51:50;100034.44;;;19.38;93.76
10510;BME280;5303;53.266;10.410;2022-09-16T13:54:26;100052.72;;;18.94;100.00
10510;BME280;5303;53.266;10.410;2022-09-16T13:57:03;100033.22;;;18.43;100.00
10510;BME280;5303;53.266;10.410;2022-09-16T14:05:35;100035.19;;;18.19;100.00
10510;BME280;5303;53.266;10.410;2022-09-16T14:10:53;100023.56;;;18.17;100.00
10510;BME280;5303;53.266;10.410;2022-09-16T14:13:22;100027.13;;;18.29;100.00
10510;BME280;5303;53.266;10.410;2022-09-16T14:15:50;100032.75;;;18.34;100.00
10510;BME280;5303;53.266;10.410;2022-09-16T14:18:20;100027.94;;;18.42;100.00
10510;BME280;5303;53.266;10.410;2022-09-16T14:21:01;100018.72;;;18.65;100.00
10510;BME280;5303;53.266;10.410;2022-09-16T14:23:28;100019.25;;;18.90;100.00
10510;BME280;5303;53.266;10.410;2022-09-16T14:25:53;100016.28;;;18.51;100.00
10510;BME280;5303;53.266;10.410;2022-09-16T14:28:24;100021.84;;;18.39;100.00
10510;BME280;5303;53.266;10.410;2022-09-16T14:30:58;100014.84;;;18.49;100.00
10510;BME280;5303;53.266;10.410;2022-09-16T14:33:42;100010.66;;;18.06;100.00
10510;BME280;5303;53.266;10.410;2022-09-16T14:36:10;100020.00;;;18.05;100.00
10510;BME280;5303;53.266;10.410;2022-09-16T14:38:40;100019.53;;;18.08;100.00
10510;BME280;5303;53.266;10.410;2022-09-16T14:41:08;100014.50;;;17.81;100.00
10510;BME280;5303;53.266;10.410;2022-09-16T14:43:36;100016.84;;;18.13;100.00
10510;BME280;5303;53.266;10.410;2022-09-16T14:46:05;100026.69;;;17.97;100.00
10510;BME280;5303;53.266;10.410;2022-09-16T14:48:34;100020.75;;;17.77;100.00
10510;BME280;5303;53.266;10.410;2022-09-16T14:51:02;100017.97;;;17.53;100.00
10510;BME280;5303;53.266;10.410;2022-09-16T14:53:32;100009.56;;;17.72;100.00
10510;BME280;5303;53.266;10.410;2022-09-16T14:56:00;100010.88;;;17.34;100.00
10510;BME280;5303;53.266;10.410;2022-09-16T14:58:27;100005.94;;;17.12;100.00
10510;BME280;5303;53.266;10.410;2022-09-16T15:00:57;99998.31;;;17.61;100.00
10510;BME280;5303;53.266;10.410;2022-09-16T15:03:32;99990.19;;;17.66;100.00
10510;BME280;5303;53.266;10.410;2022-09-16T15:06:04;99992.09;;;17.54;100.00
10510;BME280;5303;53.266;10.410;2022-09-16T15:08:35;99997.00;;;16.87;100.00
10510;BME280;5303;53.266;10.410;2022-09-16T15:11:11;99983.78;;;17.07;100.00
10510;BME280;5303;53.266;10.410;2022-09-16T15:13:38;99970.06;;;17.42;100.00
10510;BME280;5303;53.266;10.410;2022-09-16T15:16:07;99967.19;;;17.37;100.00
10510;BME280;5303;53.266;10.410;2022-09-16T15:18:37;99959.06;;;17.31;100.00
10510;BME280;5303;53.266;10.410;2022-09-16T15:21:07;99958.78;;;17.20;100.00
10510;BME280;5303;53.266;10.410;2022-09-16T15:23:35;99956.72;;;16.92;100.00
10510;BME280;5303;53.266;10.410;2022-09-16T15:26:19;99948.16;;;17.12;100.00
10510;BME280;5303;53.266;10.410;2022-09-16T15:29:01;99932.31;;;17.08;100.00
10510;BME280;5303;53.266;10.410;2022-09-16T15:31:36;99922.19;;;17.20;100.00
10510;BME280;5303;53.266;10.410;2022-09-16T15:36:49;99899.44;;;17.13;100.00